sensor_id;sensor_type;location;lat;lon;timestamp;pressure;altitude;pressure_sealevel;temperature;humidity
33795;BME280;51430;52.242;21.118;2023-04-15T00:02:25;99556.44;;;11.96;73.20
33795;BME280;51430;52.242;21.118;2023-04-15T00:04:53;99554.95;;;11.95;73.09
33795;BME280;51430;52.242;21.118;2023-04-15T00:07:21;99550.05;;;11.94;72.90
33795;BME280;51430;52.242;21.118;2023-04-15T00:09:49;99550.96;;;11.89;72.96
33795;BME280;51430;52.242;21.118;2023-04-15T00:12:16;99552.23;;;11.95;73.01
33795;BME280;51430;52.242;21.118;2023-04-15T00:14:44;99553.09;;;11.91;73.24
33795;BME280;51430;52.242;21.118;2023-04-15T00:17:12;99554.33;;;11.85;73.72
33795;BME280;51430;52.242;21.118;2023-04-15T00:19:40;99554.21;;;11.85;73.90
33795;BME280;51430;52.242;21.118;2023-04-15T00:22:08;99549.75;;;11.91;73.69
33795;BME280;51430;52.242;21.118;2023-04-15T00:24:36;99549.48;;;11.81;73.55
33795;BME280;51430;52.242;21.118;2023-04-15T00:27:03;99542.27;;;11.78;73.36
33795;BME280;51430;52.242;21.118;2023-04-15T00:35:56;99546.35;;;11.71;74.31
33795;BME280;51430;52.242;21.118;2023-04-15T00:38:24;99547.42;;;11.63;75.20
33795;BME280;51430;52.242;21.118;2023-04-15T00:40:52;99547.59;;;11.65;76.43
33795;BME280;51430;52.242;21.118;2023-04-15T00:43:20;99543.71;;;11.36;79.75
33795;BME280;51430;52.242;21.118;2023-04-15T00:45:48;99536.77;;;11.15;82.18
33795;BME280;51430;52.242;21.118;2023-04-15T00:48:19;99533.83;;;11.15;83.28
33795;BME280;51430;52.242;21.118;2023-04-15T00:50:46;99535.64;;;11.08;82.88
33795;BME280;51430;52.242;21.118;2023-04-15T00:53:15;99534.92;;;11.14;82.82
33795;BME280;51430;52.242;21.118;2023-04-15T00:55:42;99535.59;;;11.14;81.06
33795;BME280;51430;52.242;21.118;2023-04-15T00:59:57;99537.95;;;11.28;80.13
33795;BME280;51430;52.242;21.118;2023-04-15T01:03:56;99538.27;;;11.19;79.82
33795;BME280;51430;52.242;21.118;2023-04-15T01:07:18;99535.74;;;11.17;80.09
33795;BME280;51430;52.242;21.118;2023-04-15T01:09:46;99534.48;;;11.19;80.26
33795;BME280;51430;52.242;21.118;2023-04-15T01:12:15;99537.45;;;11.30;80.15
33795;BME280;51430;52.242;21.118;2023-04-15T01:14:43;99537.86;;;11.25;81.61
33795;BME280;51430;52.242;21.118;2023-04-15T01:17:11;99537.93;;;11.08;84.43
33795;BME280;51430;52.242;21.118;2023-04-15T01:19:40;99531.70;;;10.96;86.90
33795;BME280;51430;52.242;21.118;2023-04-15T01:22:08;99531.63;;;10.91;88.87
33795;BME280;51430;52.242;21.118;2023-04-15T01:24:36;99531.46;;;10.87;90.02
33795;BME280;51430;52.242;21.118;2023-04-15T01:27:04;99531.20;;;10.86;90.64
33795;BME280;51430;52.242;21.118;2023-04-15T01:29:37;99531.27;;;10.80;90.87
33795;BME280;51430;52.242;21.118;2023-04-15T01:32:05;99531.84;;;10.75;91.12
33795;BME280;51430;52.242;21.118;2023-04-15T01:34:33;99533.04;;;10.58;90.82
33795;BME280;51430;52.242;21.118;2023-04-15T01:37:02;99530.50;;;10.59;91.23
33795;BME280;51430;52.242;21.118;2023-04-15T01:39:30;99531.83;;;10.60;91.28
33795;BME280;51430;52.242;21.118;2023-04-15T01:41:57;99530.27;;;10.54;91.28
33795;BME280;51430;52.242;21.118;2023-04-15T01:44:25;99531.82;;;10.51;91.62
33795;BME280;51430;52.242;21.118;2023-04-15T01:46:54;99529.38;;;10.45;91.72
33795;BME280;51430;52.242;21.118;2023-04-15T01:49:21;99529.95;;;10.44;92.34
33795;BME280;51430;52.242;21.118;2023-04-15T01:51:49;99527.90;;;10.50;92.53
33795;BME280;51430;52.242;21.118;2023-04-15T01:54:17;99528.43;;;10.51;92.65
33795;BME280;51430;52.242;21.118;2023-04-15T01:56:45;99526.52;;;10.49;92.96
33795;BME280;51430;52.242;21.118;2023-04-15T01:59:12;99531.33;;;10.44;93.07
33795;BME280;51430;52.242;21.118;2023-04-15T02:01:40;99528.99;;;10.47;93.44
33795;BME280;51430;52.242;21.118;2023-04-15T02:04:08;99529.02;;;10.51;93.99
33795;BME280;51430;52.242;21.118;2023-04-15T02:06:43;99528.92;;;10.38;94.24
33795;BME280;51430;52.242;21.118;2023-04-15T02:09:11;99524.39;;;10.44;94.48
33795;BME280;51430;52.242;21.118;2023-04-15T02:11:39;99526.80;;;10.46;94.76
33795;BME280;51430;52.242;21.118;2023-04-15T02:14:07;99524.89;;;10.54;94.48
33795;BME280;51430;52.242;21.118;2023-04-15T02:16:34;99523.68;;;10.60;94.59
33795;BME280;51430;52.242;21.118;2023-04-15T02:19:02;99524.20;;;10.62;94.35
33795;BME280;51430;52.242;21.118;2023-04-15T02:21:30;99518.90;;;10.60;94.06
33795;BME280;51430;52.242;21.118;2023-04-15T02:23:58;99520.52;;;10.62;93.85
33795;BME280;51430;52.242;21.118;2023-04-15T02:26:26;99520.68;;;10.62;93.80
33795;BME280;51430;52.242;21.118;2023-04-15T02:28:54;99523.25;;;10.63;93.83
33795;BME280;51430;52.242;21.118;2023-04-15T02:31:22;99521.56;;;10.56;93.54
33795;BME280;51430;52.242;21.118;2023-04-15T02:38:10;99519.79;;;10.53;93.74
33795;BME280;51430;52.242;21.118;2023-04-15T02:40:39;99522.72;;;10.61;93.69
33795;BME280;51430;52.242;21.118;2023-04-15T02:43:06;99521.95;;;10.65;93.29
33795;BME280;51430;52.242;21.118;2023-04-15T02:45:37;99521.98;;;10.65;92.99
33795;BME280;51430;52.242;21.118;2023-04-15T02:48:04;99524.29;;;10.62;93.07
33795;BME280;51430;52.242;21.118;2023-04-15T02:50:33;99524.52;;;10.54;93.43
33795;BME280;51430;52.242;21.118;2023-04-15T02:53:00;99523.52;;;10.54;93.52
33795;BME280;51430;52.242;21.118;2023-04-15T02:55:29;99519.52;;;10.56;93.90
33795;BME280;51430;52.242;21.118;2023-04-15T02:57:57;99518.55;;;10.57;93.94
33795;BME280;51430;52.242;21.118;2023-04-15T03:00:26;99520.56;;;10.54;94.08
33795;BME280;51430;52.242;21.118;2023-04-15T03:03:04;99521.00;;;10.53;93.86
33795;BME280;51430;52.242;21.118;2023-04-15T03:05:33;99522.96;;;10.56;93.65
33795;BME280;51430;52.242;21.118;2023-04-15T03:08:01;99526.13;;;10.56;93.69
33795;BME280;51430;52.242;21.118;2023-04-15T03:10:29;99519.34;;;10.52;93.96
33795;BME280;51430;52.242;21.118;2023-04-15T03:12:57;99521.92;;;10.56;94.05
33795;BME280;51430;52.242;21.118;2023-04-15T03:15:25;99520.60;;;10.55;94.07
33795;BME280;51430;52.242;21.118;2023-04-15T03:17:53;99519.66;;;10.64;94.01
33795;BME280;51430;52.242;21.118;2023-04-15T03:20:21;99520.54;;;10.62;93.61
33795;BME280;51430;52.242;21.118;2023-04-15T03:22:49;99521.23;;;10.60;93.65
33795;BME280;51430;52.242;21.118;2023-04-15T03:25:16;99522.51;;;10.67;93.89
33795;BME280;51430;52.242;21.118;2023-04-15T03:27:44;99517.02;;;10.71;93.59
33795;BME280;51430;52.242;21.118;2023-04-15T03:30:12;99522.09;;;10.73;93.47
33795;BME280;51430;52.242;21.118;2023-04-15T03:32:40;99524.38;;;10.67;93.20
33795;BME280;51430;52.242;21.118;2023-04-15T03:35:08;99524.98;;;10.65;93.32
33795;BME280;51430;52.242;21.118;2023-04-15T03:37:36;99520.44;;;10.66;93.19
33795;BME280;51430;52.242;21.118;2023-04-15T03:40:04;99521.15;;;10.66;93.33
33795;BME280;51430;52.242;21.118;2023-04-15T03:42:32;99525.57;;;10.70;93.29
33795;BME280;51430;52.242;21.118;2023-04-15T03:44:59;99522.91;;;10.57;93.39
33795;BME280;51430;52.242;21.118;2023-04-15T03:47:28;99525.58;;;10.60;93.58
33795;BME280;51430;52.242;21.118;2023-04-15T03:49:56;99527.36;;;10.63;93.42
33795;BME280;51430;52.242;21.118;2023-04-15T03:52:26;99526.73;;;10.64;93.20
33795;BME280;51430;52.242;21.118;2023-04-15T03:54:54;99530.38;;;10.68;93.22
33795;BME280;51430;52.242;21.118;2023-04-15T03:57:22;99531.94;;;10.67;93.02
33795;BME280;51430;52.242;21.118;2023-04-15T03:59:50;99532.45;;;10.73;92.80
33795;BME280;51430;52.242;21.118;2023-04-15T04:02:17;99534.30;;;10.70;92.55
33795;BME280;51430;52.242;21.118;2023-04-15T04:04:45;99534.31;;;10.68;92.90
33795;BME280;51430;52.242;21.118;2023-04-15T04:07:17;99537.04;;;10.70;93.19
33795;BME280;51430;52.242;21.118;2023-04-15T04:09:45;99535.35;;;10.62;93.34
33795;BME280;51430;52.242;21.118;2023-04-15T04:12:14;99533.09;;;10.58;93.76
33795;BME280;51430;52.242;21.118;2023-04-15T04:14:43;99536.11;;;10.55;94.30
33795;BME280;51430;52.242;21.118;2023-04-15T04:17:11;99534.72;;;10.45;94.82
33795;BME280;51430;52.242;21.118;2023-04-15T04:19:39;99535.42;;;10.43;95.34
33795;BME280;51430;52.242;21.118;2023-04-15T04:22:07;99540.71;;;10.45;95.98
33795;BME280;51430;52.242;21.118;2023-04-15T04:24:35;99538.03;;;10.48;96.09
33795;BME280;51430;52.242;21.118;2023-04-15T04:27:02;99535.70;;;10.40;96.52
33795;BME280;51430;52.242;21.118;2023-04-15T04:29:31;99535.02;;;10.34;97.09
33795;BME280;51430;52.242;21.118;2023-04-15T04:31:59;99537.13;;;10.27;97.76
33795;BME280;51430;52.242;21.118;2023-04-15T04:34:27;99537.04;;;10.23;98.47
33795;BME280;51430;52.242;21.118;2023-04-15T04:36:54;99544.30;;;10.24;99.15
33795;BME280;51430;52.242;21.118;2023-04-15T04:39:23;99538.86;;;10.25;99.36
33795;BME280;51430;52.242;21.118;2023-04-15T04:41:50;99538.89;;;10.24;99.61
33795;BME280;51430;52.242;21.118;2023-04-15T04:44:21;99543.00;;;10.25;99.82
33795;BME280;51430;52.242;21.118;2023-04-15T04:46:48;99539.20;;;10.25;99.97
33795;BME280;51430;52.242;21.118;2023-04-15T04:49:17;99537.84;;;10.30;100.00
33795;BME280;51430;52.242;21.118;2023-04-15T04:51:46;99536.73;;;10.27;100.00
33795;BME280;51430;52.242;21.118;2023-04-15T04:54:14;99539.48;;;10.21;100.00
33795;BME280;51430;52.242;21.118;2023-04-15T04:56:42;99538.98;;;10.21;100.00
33795;BME280;51430;52.242;21.118;2023-04-15T04:59:10;99536.08;;;10.19;100.00
33795;BME280;51430;52.242;21.118;2023-04-15T05:01:38;99536.45;;;10.22;100.00
33795;BME280;51430;52.242;21.118;2023-04-15T05:04:06;99542.77;;;10.22;100.00
33795;BME280;51430;52.242;21.118;2023-04-15T05:06:34;99545.61;;;10.19;100.00
33795;BME280;51430;52.242;21.118;2023-04-15T05:09:06;99539.91;;;10.19;100.00
33795;BME280;51430;52.242;21.118;2023-04-15T05:11:33;99540.97;;;10.22;100.00
33795;BME280;51430;52.242;21.118;2023-04-15T05:14:01;99538.13;;;10.23;100.00
33795;BME280;51430;52.242;21.118;2023-04-15T05:16:29;99541.73;;;10.27;100.00
33795;BME280;51430;52.242;21.118;2023-04-15T05:22:25;99544.66;;;10.14;100.00
33795;BME280;51430;52.242;21.118;2023-04-15T05:24:53;99548.27;;;10.03;100.00
33795;BME280;51430;52.242;21.118;2023-04-15T05:27:21;99548.06;;;10.13;100.00
33795;BME280;51430;52.242;21.118;2023-04-15T05:29:50;99544.27;;;10.21;100.00
33795;BME280;51430;52.242;21.118;2023-04-15T05:32:18;99544.55;;;10.21;100.00
33795;BME280;51430;52.242;21.118;2023-04-15T05:34:46;99540.02;;;10.29;100.00
33795;BME280;51430;52.242;21.118;2023-04-15T05:37:14;99543.17;;;10.29;100.00
33795;BME280;51430;52.242;21.118;2023-04-15T05:39:42;99543.40;;;10.30;100.00
33795;BME280;51430;52.242;21.118;2023-04-15T05:42:12;99544.20;;;10.35;100.00
33795;BME280;51430;52.242;21.118;2023-04-15T05:44:40;99550.30;;;10.19;100.00
33795;BME280;51430;52.242;21.118;2023-04-15T05:47:08;99553.00;;;10.17;100.00
33795;BME280;51430;52.242;21.118;2023-04-15T05:49:36;99554.83;;;10.21;100.00
33795;BME280;51430;52.242;21.118;2023-04-15T05:52:05;99550.69;;;10.19;100.00
33795;BME280;51430;52.242;21.118;2023-04-15T05:54:33;99555.02;;;10.19;100.00
33795;BME280;51430;52.242;21.118;2023-04-15T05:57:00;99557.30;;;10.23;100.00
33795;BME280;51430;52.242;21.118;2023-04-15T05:59:29;99551.80;;;10.26;100.00
33795;BME280;51430;52.242;21.118;2023-04-15T06:01:58;99550.83;;;10.25;100.00
33795;BME280;51430;52.242;21.118;2023-04-15T06:04:26;99558.02;;;10.26;100.00
33795;BME280;51430;52.242;21.118;2023-04-15T06:06:54;99553.70;;;10.32;100.00
33795;BME280;51430;52.242;21.118;2023-04-15T06:09:23;99556.14;;;10.26;100.00
33795;BME280;51430;52.242;21.118;2023-04-15T06:11:51;99557.71;;;10.20;100.00
33795;BME280;51430;52.242;21.118;2023-04-15T06:14:19;99559.30;;;10.20;100.00
33795;BME280;51430;52.242;21.118;2023-04-15T06:16:48;99561.96;;;10.23;100.00
33795;BME280;51430;52.242;21.118;2023-04-15T06:19:16;99565.34;;;10.15;100.00
33795;BME280;51430;52.242;21.118;2023-04-15T06:21:45;99566.07;;;10.08;100.00
33795;BME280;51430;52.242;21.118;2023-04-15T06:24:14;99566.92;;;10.12;100.00
33795;BME280;51430;52.242;21.118;2023-04-15T06:26:42;99569.02;;;10.20;100.00
33795;BME280;51430;52.242;21.118;2023-04-15T06:29:10;99570.09;;;10.20;100.00
33795;BME280;51430;52.242;21.118;2023-04-15T06:31:38;99565.32;;;10.19;100.00
33795;BME280;51430;52.242;21.118;2023-04-15T06:34:07;99568.48;;;10.18;100.00
33795;BME280;51430;52.242;21.118;2023-04-15T06:36:35;99572.04;;;10.18;100.00
33795;BME280;51430;52.242;21.118;2023-04-15T06:39:04;99574.70;;;10.27;100.00
33795;BME280;51430;52.242;21.118;2023-04-15T06:41:32;99576.45;;;10.23;100.00
33795;BME280;51430;52.242;21.118;2023-04-15T06:44:01;99575.60;;;10.27;100.00
33795;BME280;51430;52.242;21.118;2023-04-15T06:46:29;99579.17;;;10.31;100.00
33795;BME280;51430;52.242;21.118;2023-04-15T06:49:15;99578.12;;;10.22;100.00
33795;BME280;51430;52.242;21.118;2023-04-15T06:51:43;99578.98;;;10.14;100.00
33795;BME280;51430;52.242;21.118;2023-04-15T06:54:11;99582.71;;;10.15;100.00
33795;BME280;51430;52.242;21.118;2023-04-15T06:56:40;99584.71;;;10.20;100.00
33795;BME280;51430;52.242;21.118;2023-04-15T06:59:09;99587.14;;;10.14;100.00
33795;BME280;51430;52.242;21.118;2023-04-15T07:01:37;99585.66;;;10.11;100.00
33795;BME280;51430;52.242;21.118;2023-04-15T07:04:06;99586.50;;;10.14;100.00
33795;BME280;51430;52.242;21.118;2023-04-15T07:06:34;99590.84;;;10.16;100.00
33795;BME280;51430;52.242;21.118;2023-04-15T07:09:02;99593.15;;;10.19;100.00
33795;BME280;51430;52.242;21.118;2023-04-15T07:11:32;99594.67;;;10.22;100.00
33795;BME280;51430;52.242;21.118;2023-04-15T07:13:59;99597.73;;;10.15;100.00
33795;BME280;51430;52.242;21.118;2023-04-15T07:16:28;99597.39;;;10.19;100.00
33795;BME280;51430;52.242;21.118;2023-04-15T07:18:56;99600.59;;;10.18;100.00
33795;BME280;51430;52.242;21.118;2023-04-15T07:21:24;99599.27;;;10.15;100.00
33795;BME280;51430;52.242;21.118;2023-04-15T07:23:54;99603.04;;;10.23;100.00
33795;BME280;51430;52.242;21.118;2023-04-15T07:26:21;99601.11;;;10.30;100.00
33795;BME280;51430;52.242;21.118;2023-04-15T07:28:50;99603.00;;;10.32;100.00
33795;BME280;51430;52.242;21.118;2023-04-15T07:31:17;99601.43;;;10.34;100.00
33795;BME280;51430;52.242;21.118;2023-04-15T07:33:45;99603.84;;;10.38;100.00
33795;BME280;51430;52.242;21.118;2023-04-15T07:36:18;99602.17;;;10.43;100.00
33795;BME280;51430;52.242;21.118;2023-04-15T07:38:47;99602.81;;;10.46;100.00
33795;BME280;51430;52.242;21.118;2023-04-15T07:41:15;99600.38;;;10.44;100.00
33795;BME280;51430;52.242;21.118;2023-04-15T07:43:43;99599.97;;;10.41;100.00
33795;BME280;51430;52.242;21.118;2023-04-15T07:46:11;99599.67;;;10.46;100.00
33795;BME280;51430;52.242;21.118;2023-04-15T07:48:39;99602.54;;;10.39;100.00
33795;BME280;51430;52.242;21.118;2023-04-15T07:51:07;99599.98;;;10.40;100.00
33795;BME280;51430;52.242;21.118;2023-04-15T07:53:35;99600.70;;;10.32;100.00
33795;BME280;51430;52.242;21.118;2023-04-15T07:56:03;99597.11;;;10.34;100.00
33795;BME280;51430;52.242;21.118;2023-04-15T07:58:30;99601.27;;;10.38;100.00
33795;BME280;51430;52.242;21.118;2023-04-15T08:00:58;99599.48;;;10.36;100.00
33795;BME280;51430;52.242;21.118;2023-04-15T08:03:26;99603.27;;;10.43;100.00
33795;BME280;51430;52.242;21.118;2023-04-15T08:05:55;99599.84;;;10.46;100.00
33795;BME280;51430;52.242;21.118;2023-04-15T08:08:22;99596.70;;;10.56;100.00
33795;BME280;51430;52.242;21.118;2023-04-15T08:10:50;99595.21;;;10.53;100.00
33795;BME280;51430;52.242;21.118;2023-04-15T08:13:19;99596.48;;;10.48;100.00
33795;BME280;51430;52.242;21.118;2023-04-15T08:16:12;99595.59;;;10.60;100.00
33795;BME280;51430;52.242;21.118;2023-04-15T08:18:40;99595.15;;;10.54;100.00
33795;BME280;51430;52.242;21.118;2023-04-15T08:21:09;99595.36;;;10.59;100.00
33795;BME280;51430;52.242;21.118;2023-04-15T08:23:37;99602.38;;;10.49;100.00
33795;BME280;51430;52.242;21.118;2023-04-15T08:26:05;99595.05;;;10.53;100.00
33795;BME280;51430;52.242;21.118;2023-04-15T08:28:34;99596.69;;;10.72;100.00
33795;BME280;51430;52.242;21.118;2023-04-15T08:31:02;99594.73;;;10.80;100.00
33795;BME280;51430;52.242;21.118;2023-04-15T08:33:30;99594.86;;;10.65;100.00
33795;BME280;51430;52.242;21.118;2023-04-15T08:35:57;99595.55;;;10.67;100.00
33795;BME280;51430;52.242;21.118;2023-04-15T08:38:26;99594.92;;;10.70;100.00
33795;BME280;51430;52.242;21.118;2023-04-15T08:40:57;99600.73;;;10.85;100.00
33795;BME280;51430;52.242;21.118;2023-04-15T08:43:27;99600.83;;;10.97;100.00
33795;BME280;51430;52.242;21.118;2023-04-15T08:45:56;99600.17;;;11.04;100.00
33795;BME280;51430;52.242;21.118;2023-04-15T08:48:29;99602.15;;;11.02;100.00
33795;BME280;51430;52.242;21.118;2023-04-15T08:51:18;99604.48;;;11.01;100.00
33795;BME280;51430;52.242;21.118;2023-04-15T08:53:49;99607.27;;;10.93;100.00
33795;BME280;51430;52.242;21.118;2023-04-15T08:56:18;99606.02;;;10.88;100.00
33795;BME280;51430;52.242;21.118;2023-04-15T08:58:47;99607.80;;;10.80;100.00
33795;BME280;51430;52.242;21.118;2023-04-15T09:01:15;99610.58;;;10.86;100.00
33795;BME280;51430;52.242;21.118;2023-04-15T09:03:47;99609.20;;;11.05;100.00
33795;BME280;51430;52.242;21.118;2023-04-15T09:06:16;99608.82;;;11.07;100.00
33795;BME280;51430;52.242;21.118;2023-04-15T09:08:44;99609.05;;;11.12;100.00
33795;BME280;51430;52.242;21.118;2023-04-15T09:11:15;99609.11;;;11.23;100.00
33795;BME280;51430;52.242;21.118;2023-04-15T09:13:47;99606.08;;;11.20;100.00
33795;BME280;51430;52.242;21.118;2023-04-15T09:16:15;99608.30;;;11.22;100.00
33795;BME280;51430;52.242;21.118;2023-04-15T09:18:43;99608.22;;;11.21;100.00
33795;BME280;51430;52.242;21.118;2023-04-15T09:21:13;99612.08;;;11.10;100.00
33795;BME280;51430;52.242;21.118;2023-04-15T09:24:00;99614.02;;;11.15;100.00
33795;BME280;51430;52.242;21.118;2023-04-15T09:26:34;99614.97;;;11.16;100.00
33795;BME280;51430;52.242;21.118;2023-04-15T09:29:09;99612.49;;;11.22;100.00
33795;BME280;51430;52.242;21.118;2023-04-15T09:31:40;99611.69;;;11.24;100.00
33795;BME280;51430;52.242;21.118;2023-04-15T09:34:09;99614.66;;;11.18;100.00
33795;BME280;51430;52.242;21.118;2023-04-15T09:39:17;99613.78;;;11.10;100.00
33795;BME280;51430;52.242;21.118;2023-04-15T09:41:45;99618.68;;;11.10;100.00
33795;BME280;51430;52.242;21.118;2023-04-15T09:44:23;99620.23;;;11.12;100.00
33795;BME280;51430;52.242;21.118;2023-04-15T09:46:51;99617.58;;;11.16;100.00
33795;BME280;51430;52.242;21.118;2023-04-15T09:49:19;99620.09;;;11.12;100.00
33795;BME280;51430;52.242;21.118;2023-04-15T09:51:47;99624.86;;;11.19;100.00
33795;BME280;51430;52.242;21.118;2023-04-15T09:54:35;99623.81;;;11.19;100.00
33795;BME280;51430;52.242;21.118;2023-04-15T09:57:04;99622.88;;;11.31;100.00
33795;BME280;51430;52.242;21.118;2023-04-15T09:59:32;99625.11;;;11.41;100.00
33795;BME280;51430;52.242;21.118;2023-04-15T10:02:05;99627.29;;;11.45;100.00
33795;BME280;51430;52.242;21.118;2023-04-15T10:04:35;99632.05;;;11.28;100.00
33795;BME280;51430;52.242;21.118;2023-04-15T10:07:04;99630.42;;;11.38;100.00
33795;BME280;51430;52.242;21.118;2023-04-15T10:09:50;99623.40;;;11.40;100.00
33795;BME280;51430;52.242;21.118;2023-04-15T10:12:19;99624.41;;;11.41;100.00
33795;BME280;51430;52.242;21.118;2023-04-15T10:14:52;99625.36;;;11.46;100.00
33795;BME280;51430;52.242;21.118;2023-04-15T10:17:22;99626.84;;;11.39;100.00
33795;BME280;51430;52.242;21.118;2023-04-15T10:19:53;99626.61;;;11.40;100.00
33795;BME280;51430;52.242;21.118;2023-04-15T10:22:25;99625.47;;;11.54;100.00
33795;BME280;51430;52.242;21.118;2023-04-15T10:24:55;99627.31;;;11.43;100.00
33795;BME280;51430;52.242;21.118;2023-04-15T10:27:26;99627.59;;;11.35;100.00
33795;BME280;51430;52.242;21.118;2023-04-15T10:29:55;99630.15;;;11.33;100.00
33795;BME280;51430;52.242;21.118;2023-04-15T10:32:24;99623.80;;;11.23;100.00
33795;BME280;51430;52.242;21.118;2023-04-15T10:34:53;99627.53;;;11.26;100.00
33795;BME280;51430;52.242;21.118;2023-04-15T10:37:35;99631.39;;;11.31;100.00
33795;BME280;51430;52.242;21.118;2023-04-15T10:40:22;99628.51;;;11.40;100.00
33795;BME280;51430;52.242;21.118;2023-04-15T10:42:50;99633.16;;;11.37;100.00
33795;BME280;51430;52.242;21.118;2023-04-15T10:45:18;99631.39;;;11.42;100.00
33795;BME280;51430;52.242;21.118;2023-04-15T10:47:54;99630.31;;;11.51;100.00
33795;BME280;51430;52.242;21.118;2023-04-15T10:50:26;99627.37;;;11.43;100.00
33795;BME280;51430;52.242;21.118;2023-04-15T10:52:56;99630.31;;;11.35;100.00
33795;BME280;51430;52.242;21.118;2023-04-15T10:55:31;99628.45;;;11.46;100.00
33795;BME280;51430;52.242;21.118;2023-04-15T10:58:01;99626.33;;;11.41;100.00
33795;BME280;51430;52.242;21.118;2023-04-15T11:00:31;99627.38;;;11.54;100.00
33795;BME280;51430;52.242;21.118;2023-04-15T11:03:06;99627.08;;;11.57;100.00
33795;BME280;51430;52.242;21.118;2023-04-15T11:08:06;99631.70;;;11.70;100.00
33795;BME280;51430;52.242;21.118;2023-04-15T11:15:47;99628.31;;;11.95;100.00
33795;BME280;51430;52.242;21.118;2023-04-15T11:18:17;99630.20;;;11.94;100.00
33795;BME280;51430;52.242;21.118;2023-04-15T11:20:47;99633.65;;;11.90;100.00
33795;BME280;51430;52.242;21.118;2023-04-15T11:23:18;99630.93;;;11.82;100.00
33795;BME280;51430;52.242;21.118;2023-04-15T11:25:46;99626.94;;;11.76;99.85
33795;BME280;51430;52.242;21.118;2023-04-15T11:28:15;99631.67;;;11.57;99.77
33795;BME280;51430;52.242;21.118;2023-04-15T11:30:43;99631.36;;;11.56;100.00
33795;BME280;51430;52.242;21.118;2023-04-15T11:33:11;99629.77;;;11.68;100.00
33795;BME280;51430;52.242;21.118;2023-04-15T11:35:40;99633.38;;;11.63;100.00
33795;BME280;51430;52.242;21.118;2023-04-15T11:38:12;99633.89;;;11.57;100.00
33795;BME280;51430;52.242;21.118;2023-04-15T11:40:42;99629.77;;;11.58;100.00
33795;BME280;51430;52.242;21.118;2023-04-15T11:43:17;99633.47;;;11.60;100.00
33795;BME280;51430;52.242;21.118;2023-04-15T11:45:55;99631.80;;;11.49;100.00
33795;BME280;51430;52.242;21.118;2023-04-15T11:48:26;99636.36;;;11.40;100.00
33795;BME280;51430;52.242;21.118;2023-04-15T11:50:56;99638.98;;;11.46;100.00
33795;BME280;51430;52.242;21.118;2023-04-15T11:53:45;99637.07;;;11.44;100.00
33795;BME280;51430;52.242;21.118;2023-04-15T11:56:18;99645.39;;;11.31;100.00
33795;BME280;51430;52.242;21.118;2023-04-15T11:58:51;99646.64;;;11.11;100.00
33795;BME280;51430;52.242;21.118;2023-04-15T12:01:19;99652.48;;;11.12;100.00
33795;BME280;51430;52.242;21.118;2023-04-15T12:03:47;99663.52;;;11.23;100.00
33795;BME280;51430;52.242;21.118;2023-04-15T12:06:23;99661.73;;;11.24;100.00
33795;BME280;51430;52.242;21.118;2023-04-15T12:13:54;99669.34;;;11.19;100.00
33795;BME280;51430;52.242;21.118;2023-04-15T12:16:43;99672.36;;;11.24;100.00
33795;BME280;51430;52.242;21.118;2023-04-15T12:19:26;99670.40;;;11.21;100.00
33795;BME280;51430;52.242;21.118;2023-04-15T12:22:00;99680.40;;;11.24;100.00
33795;BME280;51430;52.242;21.118;2023-04-15T12:24:32;99684.60;;;11.16;100.00
33795;BME280;51430;52.242;21.118;2023-04-15T12:27:08;99688.10;;;11.16;100.00
33795;BME280;51430;52.242;21.118;2023-04-15T12:29:39;99690.29;;;11.21;100.00
33795;BME280;51430;52.242;21.118;2023-04-15T12:32:12;99695.27;;;11.12;100.00
33795;BME280;51430;52.242;21.118;2023-04-15T12:34:45;99695.26;;;11.25;99.96
33795;BME280;51430;52.242;21.118;2023-04-15T12:37:16;99695.17;;;11.30;99.68
33795;BME280;51430;52.242;21.118;2023-04-15T12:39:46;99700.58;;;11.30;98.43
33795;BME280;51430;52.242;21.118;2023-04-15T12:42:16;99702.56;;;11.37;96.66
33795;BME280;51430;52.242;21.118;2023-04-15T12:44:44;99705.34;;;11.64;97.07
33795;BME280;51430;52.242;21.118;2023-04-15T12:47:13;99702.46;;;11.83;96.58
33795;BME280;51430;52.242;21.118;2023-04-15T12:49:41;99706.16;;;11.97;96.02
33795;BME280;51430;52.242;21.118;2023-04-15T12:52:09;99708.68;;;12.08;95.57
33795;BME280;51430;52.242;21.118;2023-04-15T12:54:38;99709.55;;;12.23;95.75
33795;BME280;51430;52.242;21.118;2023-04-15T12:57:06;99714.54;;;12.11;94.66
33795;BME280;51430;52.242;21.118;2023-04-15T12:59:34;99712.83;;;11.96;93.86
33795;BME280;51430;52.242;21.118;2023-04-15T13:02:03;99716.53;;;12.08;94.88
33795;BME280;51430;52.242;21.118;2023-04-15T13:04:31;99719.06;;;12.24;95.19
33795;BME280;51430;52.242;21.118;2023-04-15T13:07:00;99723.20;;;12.32;94.26
33795;BME280;51430;52.242;21.118;2023-04-15T13:09:28;99723.15;;;12.68;94.60
33795;BME280;51430;52.242;21.118;2023-04-15T13:11:56;99726.40;;;12.90;93.50
33795;BME280;51430;52.242;21.118;2023-04-15T13:14:24;99732.27;;;13.02;91.58
33795;BME280;51430;52.242;21.118;2023-04-15T13:16:52;99738.67;;;13.21;90.21
33795;BME280;51430;52.242;21.118;2023-04-15T13:19:20;99747.59;;;13.26;88.44
33795;BME280;51430;52.242;21.118;2023-04-15T13:21:48;99750.40;;;13.14;88.16
33795;BME280;51430;52.242;21.118;2023-04-15T13:24:16;99752.50;;;13.02;89.14
33795;BME280;51430;52.242;21.118;2023-04-15T13:26:44;99752.92;;;12.94;89.43
33795;BME280;51430;52.242;21.118;2023-04-15T13:29:12;99758.32;;;12.87;88.70
33795;BME280;51430;52.242;21.118;2023-04-15T13:31:40;99755.72;;;13.09;89.05